createdAt,value
2018-12-17T00:00:17.467Z,968.77
2018-12-17T00:01:17.506Z,968.77
2018-12-17T00:02:17.525Z,968.74
2018-12-17T00:03:17.556Z,968.75
2018-12-17T00:04:17.592Z,968.74
2018-12-17T00:05:17.633Z,968.70
2018-12-17T00:06:17.689Z,968.68
2018-12-17T00:07:17.712Z,968.64
2018-12-17T00:08:17.749Z,968.67
2018-12-17T00:09:17.785Z,968.65
2018-12-17T00:10:17.825Z,968.69
2018-12-17T00:11:17.896Z,968.68
2018-12-17T00:12:17.921Z,968.71
2018-12-17T00:13:17.940Z,968.76
2018-12-17T00:14:18.013Z,968.74
2018-12-17T00:15:18.014Z,968.71
2018-12-17T00:16:18.056Z,968.75
2018-12-17T00:17:18.118Z,968.69
2018-12-17T00:18:18.127Z,968.71
2018-12-17T00:19:18.172Z,968.65
2018-12-17T00:20:18.205Z,968.69
2018-12-17T00:21:18.347Z,968.65
2018-12-17T00:22:18.316Z,968.61
2018-12-17T00:23:18.342Z,968.66
2018-12-17T00:24:18.369Z,968.67
2018-12-17T00:25:18.399Z,968.65
2018-12-17T00:26:18.444Z,968.66
2018-12-17T00:27:18.493Z,968.65
2018-12-17T00:28:18.511Z,968.68
2018-12-17T00:29:18.580Z,968.65
2018-12-17T00:30:18.603Z,968.68
2018-12-17T00:31:18.626Z,968.70
2018-12-17T00:32:18.676Z,968.72
2018-12-17T00:33:18.732Z,968.70
2018-12-17T00:34:18.751Z,968.70
2018-12-17T00:35:18.792Z,968.71
2018-12-17T00:36:18.820Z,968.69
2018-12-17T00:37:18.894Z,968.70
2018-12-17T00:38:18.916Z,968.70
2018-12-17T00:39:19.018Z,968.72
2018-12-17T00:40:18.976Z,968.74
2018-12-17T00:41:19.015Z,968.78
2018-12-17T00:42:19.065Z,968.78
2018-12-17T00:43:19.111Z,968.75
2018-12-17T00:44:19.129Z,968.77
2018-12-17T00:45:19.171Z,968.81
2018-12-17T00:46:19.314Z,968.82
2018-12-17T00:47:19.246Z,968.86
2018-12-17T00:48:19.306Z,968.89
2018-12-17T00:49:19.324Z,968.91
2018-12-17T00:50:19.362Z,968.93
2018-12-17T00:51:19.405Z,968.99
2018-12-17T00:52:19.440Z,969.00
2018-12-17T00:53:19.508Z,969.04
2018-12-17T00:54:19.522Z,969.06
2018-12-17T00:55:19.558Z,969.11
2018-12-17T00:56:19.598Z,969.10
2018-12-17T00:57:19.642Z,969.07
2018-12-17T00:58:19.702Z,969.11
2018-12-17T00:59:19.713Z,969.13
2018-12-17T01:00:19.782Z,969.13
2018-12-17T01:01:19.792Z,969.15
2018-12-17T01:02:20.366Z,969.15
2018-12-17T01:03:19.889Z,969.10
2018-12-17T01:04:20.004Z,969.14
2018-12-17T01:05:19.953Z,969.13
2018-12-17T01:06:19.986Z,969.13
2018-12-17T01:07:20.029Z,969.15
2018-12-17T01:08:20.086Z,969.12
2018-12-17T01:09:20.106Z,969.16
2018-12-17T01:10:20.142Z,969.17
2018-12-17T01:11:20.257Z,969.17
2018-12-17T01:12:20.222Z,969.16
2018-12-17T01:13:20.277Z,969.22
2018-12-17T01:14:20.296Z,969.20
2018-12-17T01:15:20.359Z,969.16
2018-12-17T01:16:20.384Z,969.21
2018-12-17T01:17:20.452Z,969.21
2018-12-17T01:18:20.470Z,969.24
2018-12-17T01:19:20.492Z,969.28
2018-12-17T01:20:20.554Z,969.25
2018-12-17T01:21:20.566Z,969.26
2018-12-17T01:22:20.605Z,969.31
2018-12-17T01:23:20.658Z,969.31
2018-12-17T01:24:20.685Z,969.33
2018-12-17T01:25:20.754Z,969.30
2018-12-17T01:26:20.760Z,969.32
2018-12-17T01:27:20.801Z,969.34
2018-12-17T01:28:22.298Z,969.34
2018-12-17T01:29:20.881Z,969.34
2018-12-17T01:30:20.938Z,969.33
2018-12-17T01:31:20.959Z,969.34
2018-12-17T01:32:20.998Z,969.34
2018-12-17T01:33:21.053Z,969.36
2018-12-17T01:34:21.090Z,969.32
2018-12-17T01:35:21.122Z,969.30
2018-12-17T01:36:21.268Z,969.33
2018-12-17T01:37:21.190Z,969.31
2018-12-17T01:38:21.234Z,969.32
2018-12-17T01:39:21.294Z,969.38
2018-12-17T01:40:21.308Z,969.40
2018-12-17T01:41:21.349Z,969.38
2018-12-17T01:42:21.394Z,969.44
2018-12-17T01:43:21.433Z,969.42
2018-12-17T01:44:21.486Z,969.44
2018-12-17T01:45:21.501Z,969.46
2018-12-17T01:46:21.540Z,969.49
2018-12-17T01:47:21.591Z,969.47
2018-12-17T01:48:21.618Z,969.50
2018-12-17T01:49:21.688Z,969.51
2018-12-17T01:50:21.715Z,969.54
2018-12-17T01:51:21.734Z,969.57
2018-12-17T01:52:21.774Z,969.60
2018-12-17T01:53:21.823Z,969.57
2018-12-17T01:54:21.899Z,969.61
2018-12-17T01:55:21.916Z,969.59
2018-12-17T01:56:21.934Z,969.60
2018-12-17T01:57:21.993Z,969.60
2018-12-17T01:58:29.021Z,969.65
2018-12-17T01:59:22.049Z,969.62
2018-12-17T02:00:22.103Z,969.64
2018-12-17T02:01:22.222Z,969.65
2018-12-17T02:02:22.179Z,969.66
2018-12-17T02:03:22.202Z,969.66
2018-12-17T02:04:22.243Z,969.66
2018-12-17T02:05:22.283Z,969.70
2018-12-17T02:06:22.350Z,969.70
2018-12-17T02:07:22.369Z,969.70
2018-12-17T02:08:22.399Z,969.75
2018-12-17T02:09:22.437Z,969.71
2018-12-17T02:10:22.476Z,969.72
2018-12-17T02:11:22.539Z,969.72
2018-12-17T02:12:22.558Z,969.70
2018-12-17T02:13:22.594Z,969.74
2018-12-17T02:14:22.638Z,969.78
2018-12-17T02:15:22.756Z,969.73
2018-12-17T02:16:22.738Z,969.76
2018-12-17T02:17:22.761Z,969.78
2018-12-17T02:18:22.789Z,969.76
2018-12-17T02:19:22.863Z,969.82
2018-12-17T02:20:22.869Z,969.78
2018-12-17T02:21:22.930Z,969.74
2018-12-17T02:22:22.944Z,969.78
2018-12-17T02:23:23.004Z,969.78
2018-12-17T02:24:23.023Z,969.73
2018-12-17T02:25:23.063Z,969.77
2018-12-17T02:26:23.236Z,969.75
2018-12-17T02:27:23.146Z,969.76
2018-12-17T02:28:23.184Z,969.78
2018-12-17T02:29:23.224Z,969.78
2018-12-17T02:30:23.258Z,969.81
2018-12-17T02:31:23.327Z,969.85
2018-12-17T02:32:23.340Z,969.84
2018-12-17T02:33:23.376Z,969.85
2018-12-17T02:34:23.418Z,969.84
2018-12-17T02:35:25.124Z,969.85
2018-12-17T02:36:23.513Z,969.82
2018-12-17T02:37:23.537Z,969.84
2018-12-17T02:38:23.571Z,969.84
2018-12-17T02:39:23.610Z,969.85
2018-12-17T02:40:23.652Z,969.88
2018-12-17T02:41:23.723Z,969.86
2018-12-17T02:42:23.730Z,969.86
2018-12-17T02:43:23.771Z,969.87
2018-12-17T02:44:23.821Z,969.88
2018-12-17T02:45:23.848Z,969.96
2018-12-17T02:46:23.905Z,969.89
2018-12-17T02:47:23.924Z,969.95
2018-12-17T02:48:23.984Z,969.94
2018-12-17T02:49:24.003Z,969.95
2018-12-17T02:50:24.073Z,969.96
2018-12-17T02:51:24.080Z,969.95
2018-12-17T02:52:24.119Z,969.98
2018-12-17T02:53:24.184Z,969.96
2018-12-17T02:54:24.201Z,969.93
2018-12-17T02:55:24.238Z,969.94
2018-12-17T02:56:24.280Z,969.99
2018-12-17T02:57:24.344Z,970.01
2018-12-17T02:58:24.356Z,970.03
2018-12-17T02:59:24.394Z,970.01
2018-12-17T03:00:24.433Z,970.04
2018-12-17T03:01:24.475Z,970.02
2018-12-17T03:02:24.531Z,970.02
2018-12-17T03:03:24.579Z,970.02
2018-12-17T03:04:24.612Z,970.03
2018-12-17T03:05:24.678Z,970.07
2018-12-17T03:06:24.675Z,970.05
2018-12-17T03:07:24.809Z,970.08
2018-12-17T03:08:24.748Z,970.11
2018-12-17T03:09:24.793Z,970.12
2018-12-17T03:10:24.831Z,970.14
2018-12-17T03:11:24.867Z,970.14
2018-12-17T03:12:24.926Z,970.17
2018-12-17T03:13:24.952Z,970.14
2018-12-17T03:14:24.991Z,970.16
2018-12-17T03:15:25.034Z,970.18
2018-12-17T03:16:25.063Z,970.18
2018-12-17T03:17:25.125Z,970.21
2018-12-17T03:18:25.149Z,970.16
2018-12-17T03:19:25.200Z,970.23
2018-12-17T03:20:25.237Z,970.24
2018-12-17T03:21:25.264Z,970.29
2018-12-17T03:22:25.298Z,970.28
2018-12-17T03:23:25.338Z,970.28
2018-12-17T03:24:25.433Z,970.32
2018-12-17T03:25:25.420Z,970.34
2018-12-17T03:26:25.468Z,970.41
2018-12-17T03:27:25.495Z,970.39
2018-12-17T03:28:25.533Z,970.39
2018-12-17T03:29:25.595Z,970.37
2018-12-17T03:30:25.634Z,970.36
2018-12-17T03:31:25.665Z,970.39
2018-12-17T03:32:25.805Z,970.42
2018-12-17T03:33:25.735Z,970.42
2018-12-17T03:34:25.779Z,970.45
2018-12-17T03:35:25.833Z,970.43
2018-12-17T03:36:25.853Z,970.44
2018-12-17T03:37:25.894Z,970.50
2018-12-17T03:38:25.930Z,970.50
2018-12-17T03:39:26.131Z,970.53
2018-12-17T03:40:26.029Z,970.52
2018-12-17T03:41:26.048Z,970.57
2018-12-17T03:42:26.087Z,970.56
2018-12-17T03:43:26.130Z,970.54
2018-12-17T03:44:26.173Z,970.55
2018-12-17T03:45:26.236Z,970.55
2018-12-17T03:46:26.282Z,970.59
2018-12-17T03:47:26.290Z,970.62
2018-12-17T03:48:26.327Z,970.61
2018-12-17T03:49:26.363Z,970.70
2018-12-17T03:50:26.412Z,970.68
2018-12-17T03:51:26.462Z,970.70
2018-12-17T03:52:26.484Z,970.71
2018-12-17T03:53:26.537Z,970.71
2018-12-17T03:54:26.562Z,970.68
2018-12-17T03:55:26.606Z,970.68
2018-12-17T03:56:26.663Z,970.68
2018-12-17T03:57:26.703Z,970.73
2018-12-17T03:58:26.719Z,970.74
2018-12-17T03:59:26.765Z,970.72
2018-12-17T04:00:26.799Z,970.74
2018-12-17T04:01:26.862Z,970.75
2018-12-17T04:02:26.877Z,970.75
2018-12-17T04:03:26.917Z,970.79
2018-12-17T04:04:27.060Z,970.81
2018-12-17T04:05:27.007Z,970.81
2018-12-17T04:06:27.058Z,970.84
2018-12-17T04:07:27.082Z,970.84
2018-12-17T04:08:27.116Z,970.88
2018-12-17T04:09:27.155Z,970.84
2018-12-17T04:10:27.196Z,970.84
2018-12-17T04:11:27.265Z,970.86
2018-12-17T04:12:27.273Z,970.89
2018-12-17T04:13:27.310Z,970.91
2018-12-17T04:14:27.350Z,970.88
2018-12-17T04:15:27.399Z,970.90
2018-12-17T04:16:27.447Z,970.94
2018-12-17T04:17:27.472Z,970.96
2018-12-17T04:18:27.526Z,971.00
2018-12-17T04:19:27.558Z,970.99
2018-12-17T04:20:27.590Z,971.04
2018-12-17T04:21:27.650Z,971.08
2018-12-17T04:22:27.713Z,971.05
2018-12-17T04:23:27.706Z,971.07
2018-12-17T04:24:27.748Z,971.08
2018-12-17T04:25:27.787Z,971.09
2018-12-17T04:26:27.859Z,971.10
2018-12-17T04:27:27.883Z,971.08
2018-12-17T04:28:28.025Z,971.12
2018-12-17T04:29:28.025Z,971.12
2018-12-17T04:30:27.983Z,971.21
2018-12-17T04:31:28.027Z,971.19
2018-12-17T04:32:28.430Z,971.24
2018-12-17T04:33:28.103Z,971.26
2018-12-17T04:34:28.144Z,971.29
2018-12-17T04:35:28.183Z,971.28
2018-12-17T04:36:28.226Z,971.31
2018-12-17T04:37:28.279Z,971.29
2018-12-17T04:38:28.302Z,971.34
2018-12-17T04:39:28.340Z,971.35
2018-12-17T04:40:28.384Z,971.39
2018-12-17T04:41:28.425Z,971.39
2018-12-17T04:42:28.476Z,971.39
2018-12-17T04:43:28.504Z,971.41
2018-12-17T04:44:28.535Z,971.38
2018-12-17T04:45:28.576Z,971.39
2018-12-17T04:46:28.614Z,971.44
2018-12-17T04:47:28.675Z,971.44
2018-12-17T04:48:28.695Z,971.50
2018-12-17T04:49:28.734Z,971.54
2018-12-17T04:50:28.782Z,971.56
2018-12-17T04:51:28.813Z,971.55
2018-12-17T04:52:28.873Z,971.58
2018-12-17T04:53:28.892Z,971.61
2018-12-17T04:54:29.017Z,971.60
2018-12-17T04:55:28.974Z,971.68
2018-12-17T04:56:29.013Z,971.71
2018-12-17T04:57:29.070Z,971.75
2018-12-17T04:58:29.091Z,971.77
2018-12-17T04:59:29.137Z,971.77
2018-12-17T05:00:29.168Z,971.79
2018-12-17T05:01:29.302Z,971.79
2018-12-17T05:02:29.273Z,971.80
2018-12-17T05:03:29.304Z,971.82
2018-12-17T05:04:29.329Z,971.81
2018-12-17T05:05:29.368Z,971.83
2018-12-17T05:06:29.406Z,971.82
2018-12-17T05:07:29.467Z,971.83
2018-12-17T05:08:29.514Z,971.85
2018-12-17T05:09:29.541Z,971.90
2018-12-17T05:10:29.566Z,971.86
2018-12-17T05:11:29.604Z,971.92
2018-12-17T05:12:29.644Z,971.96
2018-12-17T05:13:29.683Z,971.97
2018-12-17T05:14:29.753Z,971.98
2018-12-17T05:15:29.766Z,972.03
2018-12-17T05:16:29.799Z,972.05
2018-12-17T05:17:29.838Z,972.10
2018-12-17T05:18:29.879Z,972.08
2018-12-17T05:19:29.964Z,972.09
2018-12-17T05:20:29.961Z,972.11
2018-12-17T05:21:29.999Z,972.18
2018-12-17T05:22:30.040Z,972.22
2018-12-17T05:23:30.094Z,972.17
2018-12-17T05:24:30.134Z,972.16
2018-12-17T05:25:30.166Z,972.19
2018-12-17T05:26:30.212Z,972.18
2018-12-17T05:27:30.242Z,972.23
2018-12-17T05:28:30.289Z,972.22
2018-12-17T05:29:30.337Z,972.23
2018-12-17T05:30:30.353Z,972.24
2018-12-17T05:31:30.395Z,972.28
2018-12-17T05:32:31.428Z,972.28
2018-12-17T05:33:30.474Z,972.30
2018-12-17T05:34:30.533Z,972.30
2018-12-17T05:35:30.570Z,972.33
2018-12-17T05:36:30.590Z,972.31
2018-12-17T05:37:30.642Z,972.34
2018-12-17T05:38:30.675Z,972.38
2018-12-17T05:39:30.745Z,972.40
2018-12-17T05:40:30.756Z,972.41
2018-12-17T05:41:30.792Z,972.43
2018-12-17T05:42:30.968Z,972.46
2018-12-17T05:43:30.870Z,972.49
2018-12-17T05:44:30.975Z,972.47
2018-12-17T05:45:30.958Z,972.51
2018-12-17T05:46:30.991Z,972.53
2018-12-17T05:47:31.029Z,972.54
2018-12-17T05:48:31.075Z,972.58
2018-12-17T05:49:31.136Z,972.60
2018-12-17T05:50:31.171Z,972.62
2018-12-17T05:51:31.199Z,972.64
2018-12-17T05:52:32.040Z,972.70
2018-12-17T05:53:31.268Z,972.72
2018-12-17T05:54:31.304Z,972.73
2018-12-17T05:55:31.362Z,972.76
2018-12-17T05:56:31.408Z,972.73
2018-12-17T05:57:31.426Z,972.72
2018-12-17T05:58:31.480Z,972.77
2018-12-17T05:59:31.503Z,972.78
2018-12-17T06:00:31.577Z,972.81
2018-12-17T06:01:31.583Z,972.82
2018-12-17T06:02:31.634Z,972.86
2018-12-17T06:03:31.663Z,972.85
2018-12-17T06:04:31.703Z,972.84
2018-12-17T06:05:31.761Z,972.83
2018-12-17T06:06:31.782Z,972.89
2018-12-17T06:07:31.852Z,972.94
2018-12-17T06:08:31.863Z,972.97
2018-12-17T06:09:31.901Z,972.97
2018-12-17T06:10:32.540Z,972.97
2018-12-17T06:11:32.007Z,972.97
2018-12-17T06:12:32.024Z,972.99
2018-12-17T06:13:32.069Z,973.03
2018-12-17T06:14:32.098Z,973.04
2018-12-17T06:15:32.156Z,973.02
2018-12-17T06:16:33.591Z,973.06
2018-12-17T06:17:32.225Z,973.08
2018-12-17T06:18:32.255Z,973.08
2018-12-17T06:19:32.296Z,973.13
2018-12-17T06:20:32.338Z,973.14
2018-12-17T06:21:32.402Z,973.15
2018-12-17T06:22:32.415Z,973.20
2018-12-17T06:23:32.458Z,973.23
2018-12-17T06:24:32.494Z,973.22
2018-12-17T06:25:32.535Z,973.22
2018-12-17T06:26:32.595Z,973.26
2018-12-17T06:27:36.745Z,973.24
2018-12-17T06:28:32.656Z,973.29
2018-12-17T06:29:35.581Z,973.30
2018-12-17T06:30:32.735Z,973.29
2018-12-17T06:31:32.793Z,973.24
2018-12-17T06:32:32.910Z,973.27
2018-12-17T06:33:32.854Z,973.27
2018-12-17T06:34:32.892Z,973.28
2018-12-17T06:35:32.932Z,973.30
2018-12-17T06:36:32.999Z,973.29
2018-12-17T06:37:33.013Z,973.32
2018-12-17T06:38:33.051Z,973.37
2018-12-17T06:39:33.224Z,973.38
2018-12-17T06:40:33.127Z,973.38
2018-12-17T06:41:33.201Z,973.40
2018-12-17T06:42:33.212Z,973.39
2018-12-17T06:43:33.259Z,973.41
2018-12-17T06:44:33.288Z,973.42
2018-12-17T06:45:33.327Z,973.49
2018-12-17T06:46:33.393Z,973.47
2018-12-17T06:47:33.410Z,973.47
2018-12-17T06:48:33.454Z,973.49
2018-12-17T06:49:33.493Z,973.47
2018-12-17T06:50:33.533Z,973.51
2018-12-17T06:51:33.594Z,973.54
2018-12-17T06:52:34.537Z,973.54
2018-12-17T06:53:33.643Z,973.55
2018-12-17T06:54:33.686Z,973.55
2018-12-17T06:55:33.731Z,973.60
2018-12-17T06:56:33.782Z,973.57
2018-12-17T06:57:34.536Z,973.57
2018-12-17T06:58:33.843Z,973.58
2018-12-17T06:59:33.882Z,973.63
2018-12-17T07:00:33.921Z,973.68
2018-12-17T07:01:34.004Z,973.64
2018-12-17T07:02:34.000Z,973.70
2018-12-17T07:03:34.040Z,973.66
2018-12-17T07:04:34.838Z,973.67
2018-12-17T07:05:34.122Z,973.66
2018-12-17T07:06:34.183Z,973.70
2018-12-17T07:07:34.198Z,973.71
2018-12-17T07:08:34.247Z,973.73
2018-12-17T07:09:34.279Z,973.77
2018-12-17T07:10:34.319Z,973.73
2018-12-17T07:11:34.387Z,973.76
2018-12-17T07:12:34.408Z,973.80
2018-12-17T07:13:34.459Z,973.82
2018-12-17T07:14:36.586Z,973.85
2018-12-17T07:15:34.517Z,973.89
2018-12-17T07:16:34.564Z,973.88
2018-12-17T07:17:34.624Z,973.85
2018-12-17T07:18:34.637Z,973.91
2018-12-17T07:19:34.676Z,973.94
2018-12-17T07:20:34.717Z,973.96
2018-12-17T07:21:34.757Z,973.99
2018-12-17T07:22:34.834Z,973.99
2018-12-17T07:23:34.853Z,974.01
2018-12-17T07:24:34.874Z,974.00
2018-12-17T07:25:34.919Z,974.03
2018-12-17T07:26:34.966Z,974.05
2018-12-17T07:27:34.993Z,974.01
2018-12-17T07:28:35.062Z,974.03
2018-12-17T07:29:35.178Z,974.10
2018-12-17T07:30:35.117Z,974.07
2018-12-17T07:31:36.036Z,974.10
2018-12-17T07:32:35.192Z,974.14
2018-12-17T07:33:35.260Z,974.15
2018-12-17T07:34:35.279Z,974.15
2018-12-17T07:35:35.314Z,974.15
2018-12-17T07:36:35.368Z,974.19
2018-12-17T07:37:35.423Z,974.19
2018-12-17T07:38:35.438Z,974.18
2018-12-17T07:39:35.472Z,974.22
2018-12-17T07:40:35.515Z,974.23
2018-12-17T07:41:35.555Z,974.27
2018-12-17T07:42:35.618Z,974.23
2018-12-17T07:43:35.651Z,974.30
2018-12-17T07:44:35.678Z,974.32
2018-12-17T07:45:35.720Z,974.45
2018-12-17T07:46:35.756Z,974.49
2018-12-17T07:47:35.801Z,974.50
2018-12-17T07:48:35.849Z,974.53
2018-12-17T07:49:35.874Z,974.53
2018-12-17T07:50:35.917Z,974.55
2018-12-17T07:51:35.951Z,974.60
2018-12-17T07:52:35.994Z,974.63
2018-12-17T07:53:36.074Z,974.64
2018-12-17T07:54:36.079Z,974.68
2018-12-17T07:55:36.159Z,974.69
2018-12-17T07:56:36.151Z,974.66
2018-12-17T07:57:36.195Z,974.69
2018-12-17T07:58:36.264Z,974.74
2018-12-17T07:59:36.279Z,974.73
2018-12-17T08:00:36.317Z,974.79
2018-12-17T08:01:36.371Z,974.80
2018-12-17T08:02:36.392Z,974.84
2018-12-17T08:03:36.448Z,974.85
2018-12-17T08:04:36.473Z,974.88
2018-12-17T08:05:36.533Z,974.86
2018-12-17T08:06:36.551Z,974.87
2018-12-17T08:07:36.591Z,974.88
2018-12-17T08:08:36.635Z,974.90
2018-12-17T08:09:36.701Z,974.97
2018-12-17T08:10:36.715Z,974.97
2018-12-17T08:11:36.752Z,975.01
2018-12-17T08:12:36.800Z,975.03
2018-12-17T08:13:36.851Z,975.10
2018-12-17T08:14:36.898Z,975.11
2018-12-17T08:15:36.916Z,975.12
2018-12-17T08:16:36.953Z,975.13
2018-12-17T08:17:37.081Z,975.12
2018-12-17T08:18:37.035Z,975.13
2018-12-17T08:19:37.091Z,975.18
2018-12-17T08:20:37.113Z,975.22
2018-12-17T08:21:37.157Z,975.17
2018-12-17T08:22:37.195Z,975.18
2018-12-17T08:23:37.239Z,975.19
2018-12-17T08:24:37.306Z,975.23
2018-12-17T08:25:37.318Z,975.26
2018-12-17T08:26:38.041Z,975.26
2018-12-17T08:27:37.396Z,975.32
2018-12-17T08:28:37.443Z,975.38
2018-12-17T08:29:37.525Z,975.42
2018-12-17T08:30:37.516Z,975.40
2018-12-17T08:31:37.573Z,975.46
2018-12-17T08:32:37.596Z,975.47
2018-12-17T08:33:37.647Z,975.46
2018-12-17T08:34:37.708Z,975.51
2018-12-17T08:35:37.716Z,975.51
2018-12-17T08:36:37.829Z,975.54
2018-12-17T08:37:37.812Z,975.53
2018-12-17T08:38:37.849Z,975.55
2018-12-17T08:39:37.899Z,975.56
2018-12-17T08:40:37.959Z,975.59
2018-12-17T08:41:37.965Z,975.59
2018-12-17T08:42:38.065Z,975.67
2018-12-17T08:43:38.041Z,975.66
2018-12-17T08:44:38.083Z,975.63
2018-12-17T08:45:38.161Z,975.65
2018-12-17T08:46:38.159Z,975.67
2018-12-17T08:47:38.207Z,975.65
2018-12-17T08:48:38.249Z,975.67
2018-12-17T08:49:38.337Z,975.72
2018-12-17T08:50:38.358Z,975.75
2018-12-17T08:51:38.361Z,975.74
2018-12-17T08:52:38.400Z,975.71
2018-12-17T08:53:38.443Z,975.80
2018-12-17T08:54:39.531Z,975.82
2018-12-17T08:55:38.546Z,975.82
2018-12-17T08:56:38.559Z,975.89
2018-12-17T08:57:38.603Z,975.84
2018-12-17T08:58:38.650Z,975.94
2018-12-17T08:59:38.684Z,975.93
2018-12-17T09:00:38.746Z,975.96
2018-12-17T09:01:38.782Z,975.95
2018-12-17T09:02:38.801Z,976.00
2018-12-17T09:03:38.853Z,976.08
2018-12-17T09:04:38.882Z,976.06
2018-12-17T09:05:38.948Z,976.07
2018-12-17T09:06:38.994Z,976.10
2018-12-17T09:07:39.056Z,976.08
2018-12-17T09:08:39.055Z,976.05
2018-12-17T09:09:39.086Z,976.13
2018-12-17T09:10:39.121Z,976.16
2018-12-17T09:11:39.191Z,976.22
2018-12-17T09:12:39.241Z,976.23
2018-12-17T09:13:39.251Z,976.22
2018-12-17T09:14:39.420Z,976.27
2018-12-17T09:15:39.324Z,976.27
2018-12-17T09:16:39.727Z,976.29
2018-12-17T09:17:39.408Z,976.24
2018-12-17T09:18:39.452Z,976.28
2018-12-17T09:19:39.498Z,976.33
2018-12-17T09:20:39.531Z,976.32
2018-12-17T09:21:39.584Z,976.32
2018-12-17T09:22:39.627Z,976.34
2018-12-17T09:23:39.657Z,976.31
2018-12-17T09:24:39.705Z,976.36
2018-12-17T09:25:39.757Z,976.34
2018-12-17T09:26:39.772Z,976.36
2018-12-17T09:27:39.834Z,976.40
2018-12-17T09:28:39.879Z,976.41
2018-12-17T09:29:39.902Z,976.42
2018-12-17T09:30:41.473Z,976.46
2018-12-17T09:31:39.972Z,976.44
2018-12-17T09:32:40.077Z,976.40
2018-12-17T09:33:40.059Z,976.40
2018-12-17T09:34:40.103Z,976.41
2018-12-17T09:35:40.139Z,976.46
2018-12-17T09:36:40.190Z,976.47
2018-12-17T09:37:40.237Z,976.45
2018-12-17T09:38:40.276Z,976.45
2018-12-17T09:39:40.341Z,976.41
2018-12-17T09:40:40.352Z,976.41
2018-12-17T09:41:40.381Z,976.47
2018-12-17T09:42:40.437Z,976.47
2018-12-17T09:43:40.484Z,976.49
2018-12-17T09:44:40.506Z,976.54
2018-12-17T09:45:40.545Z,976.51
2018-12-17T09:46:40.629Z,976.52
2018-12-17T09:47:40.627Z,976.54
2018-12-17T09:48:40.684Z,976.54
2018-12-17T09:49:40.706Z,976.58
2018-12-17T09:50:40.747Z,976.59
2018-12-17T09:51:40.787Z,976.57
2018-12-17T09:52:40.828Z,976.60
2018-12-17T09:53:40.889Z,976.58
2018-12-17T09:54:40.970Z,976.56
2018-12-17T09:55:40.960Z,976.55
2018-12-17T09:56:40.998Z,976.52
2018-12-17T09:57:41.039Z,976.52
2018-12-17T09:58:41.098Z,976.50
2018-12-17T09:59:41.113Z,976.57
2018-12-17T10:00:41.153Z,976.50
2018-12-17T10:01:41.189Z,976.51
2018-12-17T10:02:41.243Z,976.55
2018-12-17T10:03:41.912Z,976.49
2018-12-17T10:04:41.349Z,976.54
2018-12-17T10:05:41.366Z,976.57
2018-12-17T10:06:41.402Z,976.55
2018-12-17T10:07:41.439Z,976.56
2018-12-17T10:08:41.501Z,976.58
2018-12-17T10:09:41.522Z,976.58
2018-12-17T10:10:41.571Z,976.60
2018-12-17T10:11:41.618Z,976.58
2018-12-17T10:12:41.647Z,976.60
2018-12-17T10:13:41.711Z,976.65
2018-12-17T10:14:41.750Z,976.71
2018-12-17T10:15:41.773Z,976.67
2018-12-17T10:16:41.821Z,976.70
2018-12-17T10:17:41.854Z,976.71
2018-12-17T10:18:41.892Z,976.72
2018-12-17T10:19:41.947Z,976.77
2018-12-17T10:20:41.976Z,976.78
2018-12-17T10:21:42.018Z,976.81
2018-12-17T10:22:42.057Z,976.81
2018-12-17T10:23:42.104Z,976.78
2018-12-17T10:24:42.167Z,976.80
2018-12-17T10:25:42.179Z,976.81
2018-12-17T10:26:42.221Z,976.78
2018-12-17T10:27:42.263Z,976.79
2018-12-17T10:28:42.310Z,976.68
2018-12-17T10:29:42.371Z,976.68
2018-12-17T10:30:42.395Z,976.72
2018-12-17T10:31:42.438Z,976.73
2018-12-17T10:32:42.488Z,976.69
2018-12-17T10:33:42.514Z,976.66
2018-12-17T10:34:42.718Z,976.72
2018-12-17T10:35:42.593Z,976.74
2018-12-17T10:36:42.634Z,976.75
2018-12-17T10:37:42.682Z,976.71
2018-12-17T10:38:42.725Z,976.73
2018-12-17T10:39:42.779Z,976.74
2018-12-17T10:40:42.817Z,976.71
2018-12-17T10:41:42.840Z,976.71
2018-12-17T10:42:42.882Z,976.64
2018-12-17T10:43:42.923Z,976.69
2018-12-17T10:44:42.967Z,976.66
2018-12-17T10:45:43.029Z,976.68
2018-12-17T10:46:43.059Z,976.63
2018-12-17T10:47:43.106Z,976.68
2018-12-17T10:48:43.135Z,976.70
2018-12-17T10:49:43.186Z,976.64
2018-12-17T10:50:43.238Z,976.69
2018-12-17T10:51:43.257Z,976.65
2018-12-17T10:52:43.316Z,976.64
2018-12-17T10:53:43.342Z,976.67
2018-12-17T10:54:43.376Z,976.68
2018-12-17T10:55:43.458Z,976.71
2018-12-17T10:56:43.463Z,976.70
2018-12-17T10:57:43.500Z,976.76
2018-12-17T10:58:43.544Z,976.77
2018-12-17T10:59:43.593Z,976.75
2018-12-17T11:00:43.645Z,976.77
2018-12-17T11:01:43.671Z,976.81
2018-12-17T11:02:43.711Z,976.81
2018-12-17T11:03:43.762Z,976.87
2018-12-17T11:04:43.805Z,976.88
2018-12-17T11:05:43.871Z,976.87
2018-12-17T11:06:43.915Z,976.89
2018-12-17T11:07:43.921Z,976.89
2018-12-17T11:08:43.965Z,976.90
2018-12-17T11:09:44.011Z,976.92
2018-12-17T11:10:44.050Z,976.92
2018-12-17T11:11:44.110Z,976.96
2018-12-17T11:12:44.134Z,976.97
2018-12-17T11:13:44.177Z,976.92
2018-12-17T11:14:44.217Z,976.93
2018-12-17T11:15:44.259Z,976.96
2018-12-17T11:16:44.322Z,976.95
2018-12-17T11:17:44.801Z,976.92
2018-12-17T11:18:44.383Z,976.92
2018-12-17T11:19:44.437Z,976.94
2018-12-17T11:20:44.466Z,976.93
2018-12-17T11:21:44.543Z,976.90
2018-12-17T11:22:44.551Z,976.90
2018-12-17T11:23:44.604Z,976.90
2018-12-17T11:24:44.635Z,976.90
2018-12-17T11:25:44.678Z,976.91
2018-12-17T11:26:44.735Z,976.88
2018-12-17T11:27:44.769Z,976.89
2018-12-17T11:28:44.804Z,976.90
2018-12-17T11:29:44.845Z,976.91
2018-12-17T11:30:46.743Z,976.89
2018-12-17T11:31:44.968Z,976.85
2018-12-17T11:32:44.978Z,976.81
2018-12-17T11:33:45.019Z,976.85
2018-12-17T11:34:45.054Z,976.89
2018-12-17T11:35:45.097Z,976.89
2018-12-17T11:36:45.174Z,976.89
2018-12-17T11:37:45.191Z,976.91
2018-12-17T11:38:45.304Z,976.95
2018-12-17T11:39:45.281Z,976.96
2018-12-17T11:40:45.314Z,976.94
2018-12-17T11:41:45.371Z,976.95
2018-12-17T11:42:45.416Z,976.97
2018-12-17T11:43:45.449Z,976.92
2018-12-17T11:44:45.474Z,976.90
2018-12-17T11:45:45.518Z,976.93
2018-12-17T11:46:45.576Z,976.90
2018-12-17T11:47:45.626Z,976.92
2018-12-17T11:48:45.640Z,976.89
2018-12-17T11:49:45.698Z,976.89
2018-12-17T11:50:45.744Z,976.85
2018-12-17T11:51:45.767Z,976.84
2018-12-17T11:52:45.825Z,976.86
2018-12-17T11:53:45.849Z,976.80
2018-12-17T11:54:45.891Z,976.85
2018-12-17T11:55:45.939Z,976.89
2018-12-17T11:56:45.992Z,976.89
2018-12-17T11:57:46.077Z,976.90
2018-12-17T11:58:46.058Z,976.87
2018-12-17T11:59:46.104Z,976.90
2018-12-17T12:00:46.164Z,976.85
2018-12-17T12:01:46.230Z,976.86
2018-12-17T12:02:46.243Z,976.92
2018-12-17T12:03:46.267Z,976.90
2018-12-17T12:04:46.316Z,976.87
2018-12-17T12:05:46.348Z,976.89
2018-12-17T12:06:46.393Z,976.91
2018-12-17T12:07:46.450Z,976.90
2018-12-17T12:08:46.588Z,976.89
2018-12-17T12:09:46.519Z,976.91
2018-12-17T12:10:46.564Z,976.90
2018-12-17T12:11:46.606Z,976.90
2018-12-17T12:12:46.642Z,976.84
2018-12-17T12:13:46.699Z,976.81
2018-12-17T12:14:46.723Z,976.86
2018-12-17T12:15:46.783Z,976.88
2018-12-17T12:16:46.805Z,976.90
2018-12-17T12:17:46.848Z,976.86
2018-12-17T12:18:46.916Z,976.89
2018-12-17T12:19:46.952Z,976.89
2018-12-17T12:20:46.971Z,976.95
2018-12-17T12:21:47.016Z,977.00
2018-12-17T12:22:47.063Z,977.02
2018-12-17T12:23:47.120Z,976.99
2018-12-17T12:24:47.137Z,976.98
2018-12-17T12:25:47.179Z,977.02
2018-12-17T12:26:47.280Z,977.04
2018-12-17T12:27:47.272Z,977.02
2018-12-17T12:28:47.335Z,977.05